sensor_id;sensor_type;location;lat;lon;timestamp;pressure;altitude;pressure_sealevel;temperature;humidity
6464;BME280;3265;42.694;23.282;2023-07-20T00:00:23;70868.72;;;-143.21;58.15
6464;BME280;3265;42.694;23.282;2023-07-20T00:02:50;70856.81;;;-143.21;57.96
6464;BME280;3265;42.694;23.282;2023-07-20T00:05:17;70852.84;;;-143.21;58.18
6464;BME280;3265;42.694;23.282;2023-07-20T00:07:46;70846.91;;;-143.21;57.40
6464;BME280;3265;42.694;23.282;2023-07-20T00:10:17;70833.03;;;-143.21;57.69
6464;BME280;3265;42.694;23.282;2023-07-20T00:12:44;70833.03;;;-143.21;58.36
6464;BME280;3265;42.694;23.282;2023-07-20T00:15:14;70827.06;;;-143.21;57.48
6464;BME280;3265;42.694;23.282;2023-07-20T00:17:41;70821.13;;;-143.21;56.25
6464;BME280;3265;42.694;23.282;2023-07-20T00:20:09;70817.16;;;-143.21;56.77
6464;BME280;3265;42.694;23.282;2023-07-20T00:22:35;70809.25;;;-143.21;55.79
6464;BME280;3265;42.694;23.282;2023-07-20T00:25:03;70795.38;;;-143.21;55.79
6464;BME280;3265;42.694;23.282;2023-07-20T00:27:29;70789.41;;;-143.21;55.56
6464;BME280;3265;42.694;23.282;2023-07-20T00:29:56;70779.50;;;-143.21;56.03
6464;BME280;3265;42.694;23.282;2023-07-20T00:32:24;70785.44;;;-143.21;55.46
6464;BME280;3265;42.694;23.282;2023-07-20T00:34:51;70775.53;;;-143.21;55.23
6464;BME280;3265;42.694;23.282;2023-07-20T00:37:18;70769.59;;;-143.21;55.36
6464;BME280;3265;42.694;23.282;2023-07-20T00:39:45;70757.69;;;-143.21;55.11
6464;BME280;3265;42.694;23.282;2023-07-20T00:42:12;70759.69;;;-143.21;55.64
6464;BME280;3265;42.694;23.282;2023-07-20T00:44:38;70753.72;;;-143.21;56.32
6464;BME280;3265;42.694;23.282;2023-07-20T00:47:06;70749.78;;;-143.21;54.96
6464;BME280;3265;42.694;23.282;2023-07-20T00:49:34;70749.78;;;-143.21;55.17
6464;BME280;3265;42.694;23.282;2023-07-20T00:52:01;70755.72;;;-143.21;55.17
6464;BME280;3265;42.694;23.282;2023-07-20T00:54:30;70761.66;;;-143.21;55.26
6464;BME280;3265;42.694;23.282;2023-07-20T00:56:56;70769.59;;;-143.21;55.35
6464;BME280;3265;42.694;23.282;2023-07-20T00:59:25;70773.56;;;-143.21;55.77
6464;BME280;3265;42.694;23.282;2023-07-20T01:01:52;70773.56;;;-143.21;55.47
6464;BME280;3265;42.694;23.282;2023-07-20T01:04:19;70777.53;;;-143.21;55.32
6464;BME280;3265;42.694;23.282;2023-07-20T01:06:53;70793.38;;;-143.21;55.69
6464;BME280;3265;42.694;23.282;2023-07-20T01:09:28;70797.34;;;-143.21;56.12
6464;BME280;3265;42.694;23.282;2023-07-20T01:12:02;70809.25;;;-143.21;56.56
6464;BME280;3265;42.694;23.282;2023-07-20T01:14:31;70817.16;;;-143.21;57.05
6464;BME280;3265;42.694;23.282;2023-07-20T01:16:59;70827.06;;;-143.21;57.36
6464;BME280;3265;42.694;23.282;2023-07-20T01:19:25;70837.00;;;-143.21;57.50
6464;BME280;3265;42.694;23.282;2023-07-20T01:21:57;70842.94;;;-143.21;57.94
6464;BME280;3265;42.694;23.282;2023-07-20T01:24:52;70860.78;;;-143.21;58.17
6464;BME280;3265;42.694;23.282;2023-07-20T01:27:53;70862.75;;;-143.21;58.69
6464;BME280;3265;42.694;23.282;2023-07-20T01:30:45;70856.81;;;-143.21;58.77
6464;BME280;3265;42.694;23.282;2023-07-20T01:33:16;70868.72;;;-143.21;58.58
6464;BME280;3265;42.694;23.282;2023-07-20T01:35:45;70878.63;;;-143.21;58.89
6464;BME280;3265;42.694;23.282;2023-07-20T01:38:13;70878.63;;;-143.21;58.98
6464;BME280;3265;42.694;23.282;2023-07-20T01:40:41;70880.59;;;-143.21;58.85
6464;BME280;3265;42.694;23.282;2023-07-20T01:43:07;70888.53;;;-143.21;58.98
6464;BME280;3265;42.694;23.282;2023-07-20T01:45:34;70884.56;;;-143.21;59.23
6464;BME280;3265;42.694;23.282;2023-07-20T01:48:02;70888.53;;;-143.21;59.21
6464;BME280;3265;42.694;23.282;2023-07-20T01:50:30;70892.50;;;-143.21;59.28
6464;BME280;3265;42.694;23.282;2023-07-20T01:52:58;70884.56;;;-143.21;59.37
6464;BME280;3265;42.694;23.282;2023-07-20T01:55:24;70892.50;;;-143.21;59.33
6464;BME280;3265;42.694;23.282;2023-07-20T01:57:52;70894.47;;;-143.21;58.90
6464;BME280;3265;42.694;23.282;2023-07-20T02:00:19;70888.53;;;-143.21;59.01
6464;BME280;3265;42.694;23.282;2023-07-20T02:02:49;70896.47;;;-143.21;59.02
6464;BME280;3265;42.694;23.282;2023-07-20T02:05:16;70904.38;;;-143.21;59.53
6464;BME280;3265;42.694;23.282;2023-07-20T02:07:44;70918.25;;;-143.21;59.79
6464;BME280;3265;42.694;23.282;2023-07-20T02:10:11;70916.28;;;-143.21;59.64
6464;BME280;3265;42.694;23.282;2023-07-20T02:12:38;70914.31;;;-143.21;60.08
6464;BME280;3265;42.694;23.282;2023-07-20T02:15:06;70912.31;;;-143.21;60.29
6464;BME280;3265;42.694;23.282;2023-07-20T02:17:33;70918.25;;;-143.21;60.15
6464;BME280;3265;42.694;23.282;2023-07-20T02:20:00;70922.22;;;-143.21;60.22
6464;BME280;3265;42.694;23.282;2023-07-20T02:22:27;70928.19;;;-143.21;60.69
6464;BME280;3265;42.694;23.282;2023-07-20T02:24:55;70934.13;;;-143.21;60.73
6464;BME280;3265;42.694;23.282;2023-07-20T02:27:22;70930.16;;;-143.21;60.57
6464;BME280;3265;42.694;23.282;2023-07-20T02:29:49;70934.13;;;-143.21;60.84
6464;BME280;3265;42.694;23.282;2023-07-20T02:32:16;70936.09;;;-143.21;60.91
6464;BME280;3265;42.694;23.282;2023-07-20T02:34:43;70940.06;;;-143.21;61.42
6464;BME280;3265;42.694;23.282;2023-07-20T02:37:09;70944.03;;;-143.21;61.12
6464;BME280;3265;42.694;23.282;2023-07-20T02:39:38;70951.97;;;-143.21;61.33
6464;BME280;3265;42.694;23.282;2023-07-20T02:42:06;70961.88;;;-143.21;61.76
6464;BME280;3265;42.694;23.282;2023-07-20T02:44:33;70967.81;;;-143.21;61.39
6464;BME280;3265;42.694;23.282;2023-07-20T02:47:00;70979.72;;;-143.21;61.67
6464;BME280;3265;42.694;23.282;2023-07-20T02:49:27;70991.63;;;-143.21;62.63
6464;BME280;3265;42.694;23.282;2023-07-20T02:51:54;71011.44;;;-143.21;62.66
6464;BME280;3265;42.694;23.282;2023-07-20T02:54:21;71015.41;;;-143.21;62.98
6464;BME280;3265;42.694;23.282;2023-07-20T02:56:48;71029.28;;;-143.21;63.62
6464;BME280;3265;42.694;23.282;2023-07-20T02:59:16;71029.28;;;-143.21;64.22
6464;BME280;3265;42.694;23.282;2023-07-20T03:01:44;71029.28;;;-143.21;64.26
6464;BME280;3265;42.694;23.282;2023-07-20T03:04:10;71039.19;;;-143.21;64.39
6464;BME280;3265;42.694;23.282;2023-07-20T03:06:37;71031.25;;;-143.21;64.64
6464;BME280;3265;42.694;23.282;2023-07-20T03:09:04;71033.25;;;-143.21;64.88
6464;BME280;3265;42.694;23.282;2023-07-20T03:11:32;71037.22;;;-143.21;64.28
6464;BME280;3265;42.694;23.282;2023-07-20T03:14:00;71039.19;;;-143.21;64.67
6464;BME280;3265;42.694;23.282;2023-07-20T03:16:28;71029.28;;;-143.21;64.88
6464;BME280;3265;42.694;23.282;2023-07-20T03:18:58;71027.28;;;-143.21;65.01
6464;BME280;3265;42.694;23.282;2023-07-20T03:21:25;71029.28;;;-143.21;63.73
6464;BME280;3265;42.694;23.282;2023-07-20T03:23:55;71023.34;;;-143.21;63.60
6464;BME280;3265;42.694;23.282;2023-07-20T03:26:29;71033.25;;;-143.21;63.76
6464;BME280;3265;42.694;23.282;2023-07-20T03:28:56;71043.16;;;-143.21;64.43
6464;BME280;3265;42.694;23.282;2023-07-20T03:31:23;71055.06;;;-143.21;65.15
6464;BME280;3265;42.694;23.282;2023-07-20T03:33:52;71057.03;;;-143.21;64.89
6464;BME280;3265;42.694;23.282;2023-07-20T03:36:18;71049.09;;;-143.21;64.70
6464;BME280;3265;42.694;23.282;2023-07-20T03:38:45;71062.97;;;-143.21;64.54
6464;BME280;3265;42.694;23.282;2023-07-20T03:41:12;71061.00;;;-143.21;64.88
6464;BME280;3265;42.694;23.282;2023-07-20T03:43:41;71072.88;;;-143.21;65.47
6464;BME280;3265;42.694;23.282;2023-07-20T03:46:08;71078.84;;;-143.21;65.98
6464;BME280;3265;42.694;23.282;2023-07-20T03:48:35;71076.84;;;-143.21;66.34
6464;BME280;3265;42.694;23.282;2023-07-20T03:51:03;71076.84;;;-143.21;65.61
6464;BME280;3265;42.694;23.282;2023-07-20T03:53:29;71076.84;;;-143.21;66.08
6464;BME280;3265;42.694;23.282;2023-07-20T03:55:57;71084.78;;;-143.21;65.66
6464;BME280;3265;42.694;23.282;2023-07-20T03:58:24;71090.72;;;-143.21;66.35
6464;BME280;3265;42.694;23.282;2023-07-20T04:00:51;71092.72;;;-143.21;66.53
6464;BME280;3265;42.694;23.282;2023-07-20T04:03:19;71092.72;;;-143.21;66.09
6464;BME280;3265;42.694;23.282;2023-07-20T04:05:45;71084.78;;;-143.21;65.95
6464;BME280;3265;42.694;23.282;2023-07-20T04:08:14;71084.78;;;-143.21;66.26
6464;BME280;3265;42.694;23.282;2023-07-20T04:10:43;71084.78;;;-143.21;66.18
6464;BME280;3265;42.694;23.282;2023-07-20T04:13:11;71076.84;;;-143.21;65.66
6464;BME280;3265;42.694;23.282;2023-07-20T04:15:37;71062.97;;;-143.21;65.98
6464;BME280;3265;42.694;23.282;2023-07-20T04:18:04;71037.22;;;-143.21;65.56
6464;BME280;3265;42.694;23.282;2023-07-20T04:20:31;71005.50;;;-143.21;64.43
6464;BME280;3265;42.694;23.282;2023-07-20T04:22:58;70991.63;;;-143.21;63.51
6464;BME280;3265;42.694;23.282;2023-07-20T04:25:29;70985.66;;;-143.21;63.17
6464;BME280;3265;42.694;23.282;2023-07-20T04:28:05;70985.66;;;-143.21;63.05
6464;BME280;3265;42.694;23.282;2023-07-20T04:30:34;70999.53;;;-143.21;63.36
6464;BME280;3265;42.694;23.282;2023-07-20T04:33:02;70997.56;;;-143.21;64.29
6464;BME280;3265;42.694;23.282;2023-07-20T04:35:47;71015.41;;;-143.21;64.59
6464;BME280;3265;42.694;23.282;2023-07-20T04:38:14;71003.50;;;-143.21;64.41
6464;BME280;3265;42.694;23.282;2023-07-20T04:40:44;71001.53;;;-143.21;64.33
6464;BME280;3265;42.694;23.282;2023-07-20T04:43:11;71001.53;;;-143.21;64.77
6464;BME280;3265;42.694;23.282;2023-07-20T04:45:38;70993.59;;;-143.21;64.73
6464;BME280;3265;42.694;23.282;2023-07-20T04:48:08;70965.84;;;-143.21;63.84
6464;BME280;3265;42.694;23.282;2023-07-20T04:50:36;70936.09;;;-143.21;63.28
6464;BME280;3265;42.694;23.282;2023-07-20T04:53:03;70916.28;;;-143.21;62.92
6464;BME280;3265;42.694;23.282;2023-07-20T04:55:29;70916.28;;;-143.21;62.62
6464;BME280;3265;42.694;23.282;2023-07-20T04:58:00;70914.31;;;-143.21;62.37
6464;BME280;3265;42.694;23.282;2023-07-20T05:00:27;70920.25;;;-143.21;61.67
6464;BME280;3265;42.694;23.282;2023-07-20T05:02:54;70930.16;;;-143.21;61.74
6464;BME280;3265;42.694;23.282;2023-07-20T05:05:21;70940.06;;;-143.21;61.94
6464;BME280;3265;42.694;23.282;2023-07-20T05:07:48;70942.06;;;-143.21;62.80
6464;BME280;3265;42.694;23.282;2023-07-20T05:10:15;70949.97;;;-143.21;62.59
6464;BME280;3265;42.694;23.282;2023-07-20T05:12:42;70946.03;;;-143.21;62.78
6464;BME280;3265;42.694;23.282;2023-07-20T05:15:10;70948.00;;;-143.21;62.38
6464;BME280;3265;42.694;23.282;2023-07-20T05:17:37;70946.03;;;-143.21;61.82
6464;BME280;3265;42.694;23.282;2023-07-20T05:20:06;70932.13;;;-143.21;61.28
6464;BME280;3265;42.694;23.282;2023-07-20T05:22:35;70904.38;;;-143.21;60.88
6464;BME280;3265;42.694;23.282;2023-07-20T05:25:06;70896.47;;;-143.21;60.39
6464;BME280;3265;42.694;23.282;2023-07-20T05:27:33;70906.38;;;-143.21;59.52
6464;BME280;3265;42.694;23.282;2023-07-20T05:29:59;70910.34;;;-143.21;59.87
6464;BME280;3265;42.694;23.282;2023-07-20T05:32:28;70902.41;;;-143.21;59.67
6464;BME280;3265;42.694;23.282;2023-07-20T05:34:54;70904.38;;;-143.21;59.81
6464;BME280;3265;42.694;23.282;2023-07-20T05:37:22;70916.28;;;-143.21;60.08
6464;BME280;3265;42.694;23.282;2023-07-20T05:39:48;70916.28;;;-143.21;59.45
6464;BME280;3265;42.694;23.282;2023-07-20T05:42:15;70922.22;;;-143.21;59.03
6464;BME280;3265;42.694;23.282;2023-07-20T05:44:42;70938.09;;;-143.21;59.36
6464;BME280;3265;42.694;23.282;2023-07-20T05:47:09;70934.13;;;-143.21;59.52
6464;BME280;3265;42.694;23.282;2023-07-20T05:49:38;70934.13;;;-143.21;59.87
6464;BME280;3265;42.694;23.282;2023-07-20T05:52:06;70924.22;;;-143.21;60.27
6464;BME280;3265;42.694;23.282;2023-07-20T05:54:33;70898.44;;;-143.21;60.10
6464;BME280;3265;42.694;23.282;2023-07-20T05:56:59;70856.81;;;-143.21;59.58
6464;BME280;3265;42.694;23.282;2023-07-20T05:59:27;70829.06;;;-143.21;59.14
6464;BME280;3265;42.694;23.282;2023-07-20T06:01:54;70813.19;;;-143.21;59.41
6464;BME280;3265;42.694;23.282;2023-07-20T06:04:21;70815.19;;;-143.21;59.73
6464;BME280;3265;42.694;23.282;2023-07-20T06:06:49;70817.16;;;-143.21;59.10
6464;BME280;3265;42.694;23.282;2023-07-20T06:09:17;70819.16;;;-143.21;59.46
6464;BME280;3265;42.694;23.282;2023-07-20T06:11:45;70811.22;;;-143.21;59.53
6464;BME280;3265;42.694;23.282;2023-07-20T06:14:11;70815.19;;;-143.21;59.70
6464;BME280;3265;42.694;23.282;2023-07-20T06:16:38;70817.16;;;-143.21;60.02
6464;BME280;3265;42.694;23.282;2023-07-20T06:19:06;70827.06;;;-143.21;59.92
6464;BME280;3265;42.694;23.282;2023-07-20T06:21:32;70813.19;;;-143.21;59.39
6464;BME280;3265;42.694;23.282;2023-07-20T06:24:01;70813.19;;;-143.21;59.37
6464;BME280;3265;42.694;23.282;2023-07-20T06:26:28;70823.13;;;-143.21;60.01
6464;BME280;3265;42.694;23.282;2023-07-20T06:28:55;70815.19;;;-143.21;60.34
6464;BME280;3265;42.694;23.282;2023-07-20T06:31:22;70815.19;;;-143.21;60.23
6464;BME280;3265;42.694;23.282;2023-07-20T06:33:49;70783.47;;;-143.21;58.79
6464;BME280;3265;42.694;23.282;2023-07-20T06:36:18;70751.75;;;-143.21;57.66
6464;BME280;3265;42.694;23.282;2023-07-20T06:38:45;70727.97;;;-143.21;57.28
6464;BME280;3265;42.694;23.282;2023-07-20T06:41:13;70704.19;;;-143.21;57.14
6464;BME280;3265;42.694;23.282;2023-07-20T06:43:40;70700.22;;;-143.21;57.37
6464;BME280;3265;42.694;23.282;2023-07-20T06:46:06;70696.25;;;-143.21;57.07
6464;BME280;3265;42.694;23.282;2023-07-20T06:48:33;70698.22;;;-143.21;57.29
6464;BME280;3265;42.694;23.282;2023-07-20T06:51:00;70688.31;;;-143.21;56.64
6464;BME280;3265;42.694;23.282;2023-07-20T06:53:28;70674.44;;;-143.21;56.42
6464;BME280;3265;42.694;23.282;2023-07-20T06:55:55;70654.63;;;-143.21;56.92
6464;BME280;3265;42.694;23.282;2023-07-20T06:58:24;70638.75;;;-143.21;55.50
6464;BME280;3265;42.694;23.282;2023-07-20T07:00:52;70605.06;;;-143.21;53.79
6464;BME280;3265;42.694;23.282;2023-07-20T07:03:22;70583.25;;;-143.21;52.94
6464;BME280;3265;42.694;23.282;2023-07-20T07:05:49;70563.44;;;-143.21;52.20
6464;BME280;3265;42.694;23.282;2023-07-20T07:08:16;70565.44;;;-143.21;52.08
6464;BME280;3265;42.694;23.282;2023-07-20T07:10:43;70559.47;;;-143.21;52.57
6464;BME280;3265;42.694;23.282;2023-07-20T07:13:10;70559.47;;;-143.21;51.79
6464;BME280;3265;42.694;23.282;2023-07-20T07:15:38;70569.38;;;-143.21;51.46
6464;BME280;3265;42.694;23.282;2023-07-20T07:18:05;70571.38;;;-143.21;52.30
6464;BME280;3265;42.694;23.282;2023-07-20T07:20:31;70573.34;;;-143.21;52.01
6464;BME280;3265;42.694;23.282;2023-07-20T07:22:58;70591.19;;;-143.21;49.59
6464;BME280;3265;42.694;23.282;2023-07-20T07:25:26;70587.22;;;-143.21;52.17
6464;BME280;3265;42.694;23.282;2023-07-20T07:27:53;70575.34;;;-143.21;50.09
6464;BME280;3265;42.694;23.282;2023-07-20T07:30:21;70579.31;;;-143.21;49.15
6464;BME280;3265;42.694;23.282;2023-07-20T07:32:49;70569.38;;;-143.21;50.46
6464;BME280;3265;42.694;23.282;2023-07-20T07:35:16;70547.59;;;-143.21;50.73
6464;BME280;3265;42.694;23.282;2023-07-20T07:37:42;70551.56;;;-143.21;49.52
6464;BME280;3265;42.694;23.282;2023-07-20T07:40:12;70545.59;;;-143.21;49.86
6464;BME280;3265;42.694;23.282;2023-07-20T07:42:38;70543.63;;;-143.21;49.76
6464;BME280;3265;42.694;23.282;2023-07-20T07:45:06;70561.47;;;-143.21;50.02
6464;BME280;3265;42.694;23.282;2023-07-20T07:47:33;70581.28;;;-143.21;49.94
6464;BME280;3265;42.694;23.282;2023-07-20T07:50:02;70559.47;;;-143.21;50.55
6464;BME280;3265;42.694;23.282;2023-07-20T07:52:29;70527.75;;;-143.21;51.67
6464;BME280;3265;42.694;23.282;2023-07-20T07:54:57;70513.88;;;-143.21;49.50
6464;BME280;3265;42.694;23.282;2023-07-20T07:57:25;70502.00;;;-143.21;50.36
6464;BME280;3265;42.694;23.282;2023-07-20T07:59:52;70484.16;;;-143.21;47.95
6464;BME280;3265;42.694;23.282;2023-07-20T08:02:19;70488.13;;;-143.21;48.53
6464;BME280;3265;42.694;23.282;2023-07-20T08:04:46;70492.09;;;-143.21;49.70
6464;BME280;3265;42.694;23.282;2023-07-20T08:07:14;70511.91;;;-143.21;48.97
6464;BME280;3265;42.694;23.282;2023-07-20T08:09:41;70500.00;;;-143.21;49.23
6464;BME280;3265;42.694;23.282;2023-07-20T08:12:08;70503.97;;;-143.21;49.05
6464;BME280;3265;42.694;23.282;2023-07-20T08:14:35;70515.88;;;-143.21;49.48
6464;BME280;3265;42.694;23.282;2023-07-20T08:17:02;70507.94;;;-143.21;49.08
6464;BME280;3265;42.694;23.282;2023-07-20T08:19:29;70521.81;;;-143.21;47.70
6464;BME280;3265;42.694;23.282;2023-07-20T08:21:56;70555.50;;;-143.21;50.22
6464;BME280;3265;42.694;23.282;2023-07-20T08:24:24;70573.34;;;-143.21;49.11
6464;BME280;3265;42.694;23.282;2023-07-20T08:26:51;70585.25;;;-143.21;48.47
6464;BME280;3265;42.694;23.282;2023-07-20T08:29:18;70579.31;;;-143.21;47.97
6464;BME280;3265;42.694;23.282;2023-07-20T08:31:45;70577.31;;;-143.21;47.96
6464;BME280;3265;42.694;23.282;2023-07-20T08:34:12;70579.31;;;-143.21;47.93
6464;BME280;3265;42.694;23.282;2023-07-20T08:36:38;70579.31;;;-143.21;46.50
6464;BME280;3265;42.694;23.282;2023-07-20T08:39:05;70583.25;;;-143.21;47.42
6464;BME280;3265;42.694;23.282;2023-07-20T08:41:35;70577.31;;;-143.21;48.10
6464;BME280;3265;42.694;23.282;2023-07-20T08:44:03;70565.44;;;-143.21;47.48
6464;BME280;3265;42.694;23.282;2023-07-20T08:46:30;70567.41;;;-143.21;48.39
6464;BME280;3265;42.694;23.282;2023-07-20T08:48:58;70559.47;;;-143.21;47.36
6464;BME280;3265;42.694;23.282;2023-07-20T08:51:25;70541.63;;;-143.21;46.80
6464;BME280;3265;42.694;23.282;2023-07-20T08:53:53;70545.59;;;-143.21;44.69
6464;BME280;3265;42.694;23.282;2023-07-20T08:56:20;70533.72;;;-143.21;44.88
6464;BME280;3265;42.694;23.282;2023-07-20T08:58:49;70523.81;;;-143.21;45.38
6464;BME280;3265;42.694;23.282;2023-07-20T09:01:17;70523.81;;;-143.21;44.49
6464;BME280;3265;42.694;23.282;2023-07-20T09:03:45;70513.88;;;-143.21;45.74
6464;BME280;3265;42.694;23.282;2023-07-20T09:06:12;70498.03;;;-143.21;45.61
6464;BME280;3265;42.694;23.282;2023-07-20T09:08:39;70486.16;;;-143.21;45.61
6464;BME280;3265;42.694;23.282;2023-07-20T09:11:06;70492.09;;;-143.21;45.67
6464;BME280;3265;42.694;23.282;2023-07-20T09:13:33;70484.16;;;-143.21;44.06
6464;BME280;3265;42.694;23.282;2023-07-20T09:16:01;70478.22;;;-143.21;43.94
6464;BME280;3265;42.694;23.282;2023-07-20T09:18:31;70478.22;;;-143.21;43.14
6464;BME280;3265;42.694;23.282;2023-07-20T09:21:01;70466.31;;;-143.21;44.43
6464;BME280;3265;42.694;23.282;2023-07-20T09:23:32;70458.41;;;-143.21;43.48
6464;BME280;3265;42.694;23.282;2023-07-20T09:25:59;70446.50;;;-143.21;43.34
6464;BME280;3265;42.694;23.282;2023-07-20T09:28:26;70444.53;;;-143.21;43.33
6464;BME280;3265;42.694;23.282;2023-07-20T09:30:54;70434.59;;;-143.21;43.00
6464;BME280;3265;42.694;23.282;2023-07-20T09:33:24;70418.75;;;-143.21;43.83
6464;BME280;3265;42.694;23.282;2023-07-20T09:35:51;70412.81;;;-143.21;41.83
6464;BME280;3265;42.694;23.282;2023-07-20T09:38:18;70410.81;;;-143.21;41.86
6464;BME280;3265;42.694;23.282;2023-07-20T09:40:44;70416.78;;;-143.21;42.09
6464;BME280;3265;42.694;23.282;2023-07-20T09:43:11;70400.91;;;-143.21;41.78
6464;BME280;3265;42.694;23.282;2023-07-20T09:45:42;70387.03;;;-143.21;42.02
6464;BME280;3265;42.694;23.282;2023-07-20T09:48:09;70365.25;;;-143.21;41.79
6464;BME280;3265;42.694;23.282;2023-07-20T09:50:41;70341.44;;;-143.21;40.79
6464;BME280;3265;42.694;23.282;2023-07-20T09:53:11;70311.72;;;-143.21;40.80
6464;BME280;3265;42.694;23.282;2023-07-20T09:55:39;70287.94;;;-143.21;39.30
6464;BME280;3265;42.694;23.282;2023-07-20T09:58:08;70289.91;;;-143.21;39.93
6464;BME280;3265;42.694;23.282;2023-07-20T10:00:36;70303.78;;;-143.21;39.94
6464;BME280;3265;42.694;23.282;2023-07-20T10:03:04;70309.75;;;-143.21;40.08
6464;BME280;3265;42.694;23.282;2023-07-20T10:05:33;70307.75;;;-143.21;40.15
6464;BME280;3265;42.694;23.282;2023-07-20T10:08:02;70315.69;;;-143.21;40.92
6464;BME280;3265;42.694;23.282;2023-07-20T10:10:31;70307.75;;;-143.21;41.35
6464;BME280;3265;42.694;23.282;2023-07-20T10:13:00;70293.88;;;-143.21;40.81
6464;BME280;3265;42.694;23.282;2023-07-20T10:15:30;70266.13;;;-143.21;40.25
6464;BME280;3265;42.694;23.282;2023-07-20T10:18:02;70240.38;;;-143.21;39.92
6464;BME280;3265;42.694;23.282;2023-07-20T10:20:32;70248.28;;;-143.21;38.94
6464;BME280;3265;42.694;23.282;2023-07-20T10:23:04;70260.19;;;-143.21;39.10
6464;BME280;3265;42.694;23.282;2023-07-20T10:25:31;70270.09;;;-143.21;39.18
6464;BME280;3265;42.694;23.282;2023-07-20T10:27:58;70268.13;;;-143.21;38.96
6464;BME280;3265;42.694;23.282;2023-07-20T10:30:26;70244.34;;;-143.21;39.35
6464;BME280;3265;42.694;23.282;2023-07-20T10:32:53;70226.50;;;-143.21;38.94
6464;BME280;3265;42.694;23.282;2023-07-20T10:35:20;70250.28;;;-143.21;38.97
6464;BME280;3265;42.694;23.282;2023-07-20T10:37:48;70250.28;;;-143.21;38.95
6464;BME280;3265;42.694;23.282;2023-07-20T10:40:32;70272.09;;;-143.21;39.15
6464;BME280;3265;42.694;23.282;2023-07-20T10:43:01;70254.25;;;-143.21;37.84
6464;BME280;3265;42.694;23.282;2023-07-20T10:45:48;70260.19;;;-143.21;38.69
6464;BME280;3265;42.694;23.282;2023-07-20T10:48:16;70234.44;;;-143.21;39.13
6464;BME280;3265;42.694;23.282;2023-07-20T10:50:45;70254.25;;;-143.21;38.51
6464;BME280;3265;42.694;23.282;2023-07-20T10:53:15;70285.97;;;-143.21;39.84
6464;BME280;3265;42.694;23.282;2023-07-20T10:55:44;70297.84;;;-143.21;39.85
6464;BME280;3265;42.694;23.282;2023-07-20T10:58:13;70274.06;;;-143.21;40.41
6464;BME280;3265;42.694;23.282;2023-07-20T11:01:00;70224.50;;;-143.21;40.40
6464;BME280;3265;42.694;23.282;2023-07-20T11:03:32;70184.88;;;-143.21;39.81
6464;BME280;3265;42.694;23.282;2023-07-20T11:05:59;70145.25;;;-143.21;40.23
6464;BME280;3265;42.694;23.282;2023-07-20T11:08:46;70093.72;;;-143.21;39.19
6464;BME280;3265;42.694;23.282;2023-07-20T11:11:25;70056.06;;;-143.21;38.78
6464;BME280;3265;42.694;23.282;2023-07-20T11:13:56;70040.19;;;-143.21;38.54
6464;BME280;3265;42.694;23.282;2023-07-20T11:16:34;70022.38;;;-143.21;38.29
6464;BME280;3265;42.694;23.282;2023-07-20T11:19:02;69976.78;;;-143.21;38.26
6464;BME280;3265;42.694;23.282;2023-07-20T11:21:29;69949.03;;;-143.21;37.71
6464;BME280;3265;42.694;23.282;2023-07-20T11:24:03;69931.19;;;-143.21;37.59
6464;BME280;3265;42.694;23.282;2023-07-20T11:26:39;69919.31;;;-143.21;37.55
6464;BME280;3265;42.694;23.282;2023-07-20T11:29:06;69891.56;;;-143.21;36.87
6464;BME280;3265;42.694;23.282;2023-07-20T11:31:35;69873.72;;;-143.21;37.03
6464;BME280;3265;42.694;23.282;2023-07-20T11:34:02;69863.81;;;-143.21;37.07
6464;BME280;3265;42.694;23.282;2023-07-20T11:36:29;69842.03;;;-143.21;36.45
6464;BME280;3265;42.694;23.282;2023-07-20T11:38:56;69814.28;;;-143.21;35.79
6464;BME280;3265;42.694;23.282;2023-07-20T11:41:24;69796.44;;;-143.21;35.06
6464;BME280;3265;42.694;23.282;2023-07-20T11:43:54;69780.59;;;-143.21;35.53
6464;BME280;3265;42.694;23.282;2023-07-20T11:46:21;69754.81;;;-143.21;35.95
6464;BME280;3265;42.694;23.282;2023-07-20T11:48:48;69750.88;;;-143.21;35.04
6464;BME280;3265;42.694;23.282;2023-07-20T11:51:15;69719.16;;;-143.21;35.33
6464;BME280;3265;42.694;23.282;2023-07-20T11:53:43;69711.22;;;-143.21;35.42
6464;BME280;3265;42.694;23.282;2023-07-20T11:56:11;69681.50;;;-143.21;35.57
6464;BME280;3265;42.694;23.282;2023-07-20T11:58:41;69647.81;;;-143.21;35.08
6464;BME280;3265;42.694;23.282;2023-07-20T12:01:11;69616.13;;;-143.21;34.43
6464;BME280;3265;42.694;23.282;2023-07-20T12:03:38;69590.34;;;-143.21;33.99
6464;BME280;3265;42.694;23.282;2023-07-20T12:06:07;69572.53;;;-143.21;33.63
6464;BME280;3265;42.694;23.282;2023-07-20T12:08:34;69556.66;;;-143.21;33.01
6464;BME280;3265;42.694;23.282;2023-07-20T12:11:01;69540.81;;;-143.21;32.88
6464;BME280;3265;42.694;23.282;2023-07-20T12:13:38;69509.13;;;-143.21;32.43
6464;BME280;3265;42.694;23.282;2023-07-20T12:16:14;69479.38;;;-143.21;31.85
6464;BME280;3265;42.694;23.282;2023-07-20T12:18:41;69457.59;;;-143.21;31.49
6464;BME280;3265;42.694;23.282;2023-07-20T12:21:09;69459.56;;;-143.21;31.49
6464;BME280;3265;42.694;23.282;2023-07-20T12:23:37;69515.06;;;-143.21;31.67
6464;BME280;3265;42.694;23.282;2023-07-20T12:26:06;69528.94;;;-143.21;32.19
6464;BME280;3265;42.694;23.282;2023-07-20T12:28:36;69481.38;;;-143.21;31.07
6464;BME280;3265;42.694;23.282;2023-07-20T12:31:05;69465.50;;;-143.21;28.93
6464;BME280;3265;42.694;23.282;2023-07-20T12:33:33;69463.53;;;-143.21;28.69
6464;BME280;3265;42.694;23.282;2023-07-20T12:36:00;69433.81;;;-143.21;28.46
6464;BME280;3265;42.694;23.282;2023-07-20T12:38:27;69402.13;;;-143.21;28.36
6464;BME280;3265;42.694;23.282;2023-07-20T12:40:56;69400.13;;;-143.21;28.23
6464;BME280;3265;42.694;23.282;2023-07-20T12:43:23;69386.25;;;-143.21;28.44
6464;BME280;3265;42.694;23.282;2023-07-20T12:45:51;69360.50;;;-143.21;27.89
6464;BME280;3265;42.694;23.282;2023-07-20T12:48:18;69338.69;;;-143.21;28.22
6464;BME280;3265;42.694;23.282;2023-07-20T12:50:46;69364.47;;;-143.21;28.14
6464;BME280;3265;42.694;23.282;2023-07-20T12:53:13;69340.69;;;-143.21;28.54
6464;BME280;3265;42.694;23.282;2023-07-20T12:55:39;69318.88;;;-143.21;28.52